KOWD/OWD METAR and TAF weather

Enter ICAO airport designator
Station Type Date Time Source
KOWD METAR 2021/09/24 01:53 UTC NOAA

KOWD 240153Z 15006KT 10SM CLR 23/20 A3007 RMK AO2 RAE0055 SLP183 P0000 T02280200


Station Type Date Time Source
KOWD Decoded METAR 2021/09/24 01:53 UTC NOAA

NORWOOD MEMORIAL AIRPORT, MA, United States (KOWD) 42-11N 71-10W 19M
Sep 23, 2021 - 09:53 PM EDT / 2021.09.24 0153 UTC
Wind: from the SSE (150 degrees) at 7 MPH (6 KT):0
Visibility: 10 mile(s):0
Sky conditions: clear
Precipitation last hour: A trace
Temperature: 73.0 F (22.8 C)
Dew Point: 68.0 F (20.0 C)
Relative Humidity: 84%
Pressure (altimeter): 30.07 in. Hg (1018 hPa)
ob: KOWD 240153Z 15006KT 10SM CLR 23/20 A3007 RMK AO2 RAE0055 SLP183 P0000 T02280200
cycle: 2

Station Type Date Time Source
KOWD TAF UTC NOAA

Error!

Example: see airport list